sensor_id;sensor_type;location;lat;lon;timestamp;P1;durP1;ratioP1;P2;durP2;ratioP2
61206;SDS011;47070;49.212;8.084;2022-11-21T00:03:09;942.47;;;884.87;;
61206;SDS011;47070;49.212;8.084;2022-11-21T00:07:10;956.42;;;898.42;;
61206;SDS011;47070;49.212;8.084;2022-11-21T00:11:11;969.63;;;911.03;;
61206;SDS011;47070;49.212;8.084;2022-11-21T00:15:12;965.00;;;906.70;;
61206;SDS011;47070;49.212;8.084;2022-11-21T00:19:12;969.40;;;910.83;;
61206;SDS011;47070;49.212;8.084;2022-11-21T00:23:13;954.77;;;896.67;;
61206;SDS011;47070;49.212;8.084;2022-11-21T00:27:13;940.33;;;882.80;;
61206;SDS011;47070;49.212;8.084;2022-11-21T00:31:18;935.13;;;877.75;;
61206;SDS011;47070;49.212;8.084;2022-11-21T00:35:20;915.53;;;858.88;;
61206;SDS011;47070;49.212;8.084;2022-11-21T00:39:21;905.92;;;849.47;;
61206;SDS011;47070;49.212;8.084;2022-11-21T00:43:21;914.27;;;857.53;;
61206;SDS011;47070;49.212;8.084;2022-11-21T00:47:22;911.53;;;854.92;;
61206;SDS011;47070;49.212;8.084;2022-11-21T00:51:22;923.70;;;866.78;;
61206;SDS011;47070;49.212;8.084;2022-11-21T00:55:23;936.17;;;878.77;;
61206;SDS011;47070;49.212;8.084;2022-11-21T00:59:24;939.00;;;881.55;;
61206;SDS011;47070;49.212;8.084;2022-11-21T01:03:24;937.20;;;879.63;;
61206;SDS011;47070;49.212;8.084;2022-11-21T01:07:25;923.13;;;866.33;;
61206;SDS011;47070;49.212;8.084;2022-11-21T01:11:25;921.83;;;865.03;;
61206;SDS011;47070;49.212;8.084;2022-11-21T01:15:26;905.22;;;848.92;;
61206;SDS011;47070;49.212;8.084;2022-11-21T01:19:27;897.43;;;841.23;;
61206;SDS011;47070;49.212;8.084;2022-11-21T01:23:28;888.00;;;831.77;;
61206;SDS011;47070;49.212;8.084;2022-11-21T01:27:28;875.58;;;820.00;;
61206;SDS011;47070;49.212;8.084;2022-11-21T01:31:29;854.85;;;799.92;;
61206;SDS011;47070;49.212;8.084;2022-11-21T01:35:30;845.95;;;790.97;;
61206;SDS011;47070;49.212;8.084;2022-11-21T01:39:30;842.07;;;787.37;;
61206;SDS011;47070;49.212;8.084;2022-11-21T01:43:31;846.20;;;791.50;;
61206;SDS011;47070;49.212;8.084;2022-11-21T01:47:32;845.38;;;790.75;;
61206;SDS011;47070;49.212;8.084;2022-11-21T01:55:43;862.80;;;807.70;;
61206;SDS011;47070;49.212;8.084;2022-11-21T01:59:51;870.45;;;815.05;;
61206;SDS011;47070;49.212;8.084;2022-11-21T02:03:58;884.97;;;829.13;;
61206;SDS011;47070;49.212;8.084;2022-11-21T02:08:03;892.80;;;836.75;;
61206;SDS011;47070;49.212;8.084;2022-11-21T02:12:10;910.85;;;854.30;;
61206;SDS011;47070;49.212;8.084;2022-11-21T02:16:20;925.10;;;868.10;;
61206;SDS011;47070;49.212;8.084;2022-11-21T02:20:25;933.17;;;875.88;;
61206;SDS011;47070;49.212;8.084;2022-11-21T02:24:29;946.33;;;888.72;;
61206;SDS011;47070;49.212;8.084;2022-11-21T02:28:44;950.67;;;892.90;;
61206;SDS011;47070;49.212;8.084;2022-11-21T02:32:45;948.90;;;891.20;;
61206;SDS011;47070;49.212;8.084;2022-11-21T02:36:46;962.65;;;904.50;;
61206;SDS011;47070;49.212;8.084;2022-11-21T02:40:55;961.43;;;903.33;;
61206;SDS011;47070;49.212;8.084;2022-11-21T02:45:07;959.33;;;901.25;;
61206;SDS011;47070;49.212;8.084;2022-11-21T02:49:13;970.92;;;912.53;;
61206;SDS011;47070;49.212;8.084;2022-11-21T02:53:19;953.60;;;895.80;;
61206;SDS011;47070;49.212;8.084;2022-11-21T02:57:20;962.90;;;904.70;;
61206;SDS011;47070;49.212;8.084;2022-11-21T03:01:20;947.17;;;889.57;;
61206;SDS011;47070;49.212;8.084;2022-11-21T03:05:21;951.93;;;894.17;;
61206;SDS011;47070;49.212;8.084;2022-11-21T03:09:22;960.38;;;902.30;;
61206;SDS011;47070;49.212;8.084;2022-11-21T03:13:23;954.03;;;896.10;;
61206;SDS011;47070;49.212;8.084;2022-11-21T03:17:23;949.87;;;891.97;;
61206;SDS011;47070;49.212;8.084;2022-11-21T03:21:24;947.83;;;890.03;;
61206;SDS011;47070;49.212;8.084;2022-11-21T03:25:24;937.73;;;880.30;;
61206;SDS011;47070;49.212;8.084;2022-11-21T03:29:25;924.80;;;867.70;;
61206;SDS011;47070;49.212;8.084;2022-11-21T03:33:25;899.47;;;843.23;;
61206;SDS011;47070;49.212;8.084;2022-11-21T03:37:26;901.90;;;845.63;;
61206;SDS011;47070;49.212;8.084;2022-11-21T03:41:26;896.43;;;840.43;;
61206;SDS011;47070;49.212;8.084;2022-11-21T03:45:30;898.58;;;842.58;;
61206;SDS011;47070;49.212;8.084;2022-11-21T03:49:31;908.50;;;851.95;;
61206;SDS011;47070;49.212;8.084;2022-11-21T03:53:31;909.27;;;852.83;;
61206;SDS011;47070;49.212;8.084;2022-11-21T03:57:32;915.77;;;859.13;;
61206;SDS011;47070;49.212;8.084;2022-11-21T04:01:32;906.30;;;849.90;;
61206;SDS011;47070;49.212;8.084;2022-11-21T04:05:33;881.40;;;825.80;;
61206;SDS011;47070;49.212;8.084;2022-11-21T04:09:33;876.37;;;820.87;;
61206;SDS011;47070;49.212;8.084;2022-11-21T04:13:34;872.13;;;816.83;;
61206;SDS011;47070;49.212;8.084;2022-11-21T04:17:34;861.17;;;806.27;;
61206;SDS011;47070;49.212;8.084;2022-11-21T04:21:37;850.80;;;796.10;;
61206;SDS011;47070;49.212;8.084;2022-11-21T04:25:37;841.33;;;786.57;;
61206;SDS011;47070;49.212;8.084;2022-11-21T04:29:38;826.27;;;772.07;;
61206;SDS011;47070;49.212;8.084;2022-11-21T04:33:38;837.92;;;783.55;;
61206;SDS011;47070;49.212;8.084;2022-11-21T04:37:39;843.07;;;788.37;;
61206;SDS011;47070;49.212;8.084;2022-11-21T04:41:39;833.17;;;778.87;;
61206;SDS011;47070;49.212;8.084;2022-11-21T04:45:40;845.72;;;791.13;;
61206;SDS011;47070;49.212;8.084;2022-11-21T04:49:40;854.17;;;799.33;;
61206;SDS011;47070;49.212;8.084;2022-11-21T04:53:41;862.67;;;807.47;;
61206;SDS011;47070;49.212;8.084;2022-11-21T04:57:41;866.95;;;811.75;;
61206;SDS011;47070;49.212;8.084;2022-11-21T05:01:42;874.73;;;819.23;;
61206;SDS011;47070;49.212;8.084;2022-11-21T05:05:43;878.45;;;822.78;;
61206;SDS011;47070;49.212;8.084;2022-11-21T05:09:43;872.60;;;817.00;;
61206;SDS011;47070;49.212;8.084;2022-11-21T05:13:44;869.13;;;813.83;;
61206;SDS011;47070;49.212;8.084;2022-11-21T05:17:44;865.58;;;810.38;;
61206;SDS011;47070;49.212;8.084;2022-11-21T05:21:45;877.53;;;821.97;;
61206;SDS011;47070;49.212;8.084;2022-11-21T05:25:45;874.30;;;818.90;;
61206;SDS011;47070;49.212;8.084;2022-11-21T05:29:46;881.83;;;826.13;;
61206;SDS011;47070;49.212;8.084;2022-11-21T05:33:46;900.47;;;844.20;;
61206;SDS011;47070;49.212;8.084;2022-11-21T05:37:47;910.38;;;853.47;;
61206;SDS011;47070;49.212;8.084;2022-11-21T05:41:47;891.20;;;835.07;;
61206;SDS011;47070;49.212;8.084;2022-11-21T05:45:48;878.42;;;823.05;;
61206;SDS011;47070;49.212;8.084;2022-11-21T05:49:49;887.55;;;831.60;;
61206;SDS011;47070;49.212;8.084;2022-11-21T05:53:49;885.53;;;829.67;;
61206;SDS011;47070;49.212;8.084;2022-11-21T05:57:50;886.57;;;830.67;;
61206;SDS011;47070;49.212;8.084;2022-11-21T06:01:50;883.10;;;827.40;;
61206;SDS011;47070;49.212;8.084;2022-11-21T06:06:10;880.07;;;824.27;;
61206;SDS011;47070;49.212;8.084;2022-11-21T06:10:12;893.73;;;837.60;;
61206;SDS011;47070;49.212;8.084;2022-11-21T06:14:13;900.73;;;844.27;;
61206;SDS011;47070;49.212;8.084;2022-11-21T06:18:14;899.30;;;842.97;;
61206;SDS011;47070;49.212;8.084;2022-11-21T06:22:14;892.92;;;836.85;;
61206;SDS011;47070;49.212;8.084;2022-11-21T06:26:16;889.53;;;833.43;;
61206;SDS011;47070;49.212;8.084;2022-11-21T06:30:18;899.63;;;843.47;;
61206;SDS011;47070;49.212;8.084;2022-11-21T06:34:18;904.70;;;848.10;;
61206;SDS011;47070;49.212;8.084;2022-11-21T06:38:19;901.83;;;845.37;;
61206;SDS011;47070;49.212;8.084;2022-11-21T06:42:19;895.73;;;839.33;;
61206;SDS011;47070;49.212;8.084;2022-11-21T06:46:20;882.72;;;826.72;;
61206;SDS011;47070;49.212;8.084;2022-11-21T06:50:20;873.83;;;818.23;;
61206;SDS011;47070;49.212;8.084;2022-11-21T06:54:21;896.72;;;839.75;;
61206;SDS011;47070;49.212;8.084;2022-11-21T06:58:22;892.10;;;835.78;;
61206;SDS011;47070;49.212;8.084;2022-11-21T07:02:22;886.73;;;830.83;;
61206;SDS011;47070;49.212;8.084;2022-11-21T07:06:23;895.00;;;838.70;;
61206;SDS011;47070;49.212;8.084;2022-11-21T07:10:23;895.30;;;839.15;;
61206;SDS011;47070;49.212;8.084;2022-11-21T07:14:24;909.50;;;852.87;;
61206;SDS011;47070;49.212;8.084;2022-11-21T07:18:25;926.43;;;869.27;;
61206;SDS011;47070;49.212;8.084;2022-11-21T07:22:26;920.83;;;863.83;;
61206;SDS011;47070;49.212;8.084;2022-11-21T07:26:26;919.27;;;862.23;;
61206;SDS011;47070;49.212;8.084;2022-11-21T07:30:27;917.87;;;860.97;;
61206;SDS011;47070;49.212;8.084;2022-11-21T07:34:28;925.58;;;868.28;;
61206;SDS011;47070;49.212;8.084;2022-11-21T07:38:28;924.35;;;867.33;;
61206;SDS011;47070;49.212;8.084;2022-11-21T07:42:30;935.00;;;877.47;;
61206;SDS011;47070;49.212;8.084;2022-11-21T07:46:31;927.58;;;870.35;;
61206;SDS011;47070;49.212;8.084;2022-11-21T07:50:32;927.30;;;870.13;;
61206;SDS011;47070;49.212;8.084;2022-11-21T07:54:33;922.83;;;865.63;;
61206;SDS011;47070;49.212;8.084;2022-11-21T07:58:34;922.83;;;865.87;;
61206;SDS011;47070;49.212;8.084;2022-11-21T08:02:34;928.47;;;871.25;;
61206;SDS011;47070;49.212;8.084;2022-11-21T08:06:35;928.20;;;870.80;;
61206;SDS011;47070;49.212;8.084;2022-11-21T08:10:36;941.50;;;883.70;;
61206;SDS011;47070;49.212;8.084;2022-11-21T08:14:38;930.80;;;873.28;;
61206;SDS011;47070;49.212;8.084;2022-11-21T08:18:39;927.55;;;870.38;;
61206;SDS011;47070;49.212;8.084;2022-11-21T08:22:40;929.85;;;872.45;;
61206;SDS011;47070;49.212;8.084;2022-11-21T08:26:41;938.03;;;880.45;;
61206;SDS011;47070;49.212;8.084;2022-11-21T08:30:41;923.43;;;866.37;;
61206;SDS011;47070;49.212;8.084;2022-11-21T08:34:42;922.87;;;865.80;;
61206;SDS011;47070;49.212;8.084;2022-11-21T08:38:42;919.03;;;862.05;;
61206;SDS011;47070;49.212;8.084;2022-11-21T08:42:43;916.37;;;859.33;;
61206;SDS011;47070;49.212;8.084;2022-11-21T08:46:43;912.47;;;855.67;;
61206;SDS011;47070;49.212;8.084;2022-11-21T08:50:44;912.40;;;855.63;;
61206;SDS011;47070;49.212;8.084;2022-11-21T08:54:44;907.80;;;850.97;;
61206;SDS011;47070;49.212;8.084;2022-11-21T08:58:45;921.00;;;863.17;;
61206;SDS011;47070;49.212;8.084;2022-11-21T09:02:46;912.33;;;855.60;;
61206;SDS011;47070;49.212;8.084;2022-11-21T09:06:46;918.75;;;861.60;;
61206;SDS011;47070;49.212;8.084;2022-11-21T09:10:47;922.40;;;865.40;;
61206;SDS011;47070;49.212;8.084;2022-11-21T09:14:47;910.65;;;853.88;;
61206;SDS011;47070;49.212;8.084;2022-11-21T09:19:08;918.28;;;861.22;;
61206;SDS011;47070;49.212;8.084;2022-11-21T09:23:12;914.13;;;857.37;;
61206;SDS011;47070;49.212;8.084;2022-11-21T09:27:14;920.40;;;863.33;;
61206;SDS011;47070;49.212;8.084;2022-11-21T09:31:14;909.20;;;852.07;;
61206;SDS011;47070;49.212;8.084;2022-11-21T09:35:15;898.42;;;841.92;;
61206;SDS011;47070;49.212;8.084;2022-11-21T09:39:15;896.90;;;840.60;;
61206;SDS011;47070;49.212;8.084;2022-11-21T09:43:36;913.03;;;856.23;;
61206;SDS011;47070;49.212;8.084;2022-11-21T09:48:01;928.40;;;870.92;;
61206;SDS011;47070;49.212;8.084;2022-11-21T09:52:07;939.67;;;882.00;;
61206;SDS011;47070;49.212;8.084;2022-11-21T09:56:12;944.33;;;886.53;;
61206;SDS011;47070;49.212;8.084;2022-11-21T10:00:21;951.67;;;893.40;;
61206;SDS011;47070;49.212;8.084;2022-11-21T10:04:23;964.60;;;906.03;;
61206;SDS011;47070;49.212;8.084;2022-11-21T10:13:35;958.55;;;900.25;;
61206;SDS011;47070;49.212;8.084;2022-11-21T10:17:40;952.88;;;894.78;;
61206;SDS011;47070;49.212;8.084;2022-11-21T10:30:57;952.83;;;894.53;;
61206;SDS011;47070;49.212;8.084;2022-11-21T10:35:10;949.53;;;891.60;;
61206;SDS011;47070;49.212;8.084;2022-11-21T10:39:39;957.03;;;898.58;;
61206;SDS011;47070;49.212;8.084;2022-11-21T10:43:42;948.37;;;890.07;;
61206;SDS011;47070;49.212;8.084;2022-11-21T10:48:07;944.38;;;885.95;;
61206;SDS011;47070;49.212;8.084;2022-11-21T10:52:15;940.57;;;882.67;;
61206;SDS011;47070;49.212;8.084;2022-11-21T10:56:22;929.97;;;872.58;;
61206;SDS011;47070;49.212;8.084;2022-11-21T11:00:25;936.17;;;878.42;;
61206;SDS011;47070;49.212;8.084;2022-11-21T11:04:27;944.30;;;886.25;;
61206;SDS011;47070;49.212;8.084;2022-11-21T11:08:29;941.17;;;883.40;;
61206;SDS011;47070;49.212;8.084;2022-11-21T11:12:50;949.92;;;891.53;;
61206;SDS011;47070;49.212;8.084;2022-11-21T11:17:12;940.70;;;882.67;;
61206;SDS011;47070;49.212;8.084;2022-11-21T11:21:15;955.90;;;897.43;;
61206;SDS011;47070;49.212;8.084;2022-11-21T11:25:20;948.83;;;890.63;;
61206;SDS011;47070;49.212;8.084;2022-11-21T11:29:23;959.90;;;901.47;;
61206;SDS011;47070;49.212;8.084;2022-11-21T11:37:39;993.15;;;933.38;;
61206;SDS011;47070;49.212;8.084;2022-11-21T11:41:51;985.25;;;925.58;;
61206;SDS011;47070;49.212;8.084;2022-11-21T11:46:40;978.50;;;919.15;;
61206;SDS011;47070;49.212;8.084;2022-11-21T11:51:36;979.10;;;919.83;;
61206;SDS011;47070;49.212;8.084;2022-11-21T11:55:59;985.73;;;925.87;;
61206;SDS011;47070;49.212;8.084;2022-11-21T12:00:21;993.00;;;933.07;;
61206;SDS011;47070;49.212;8.084;2022-11-21T12:04:31;1018.15;;;957.45;;
61206;SDS011;47070;49.212;8.084;2022-11-21T12:13:01;1031.28;;;970.05;;
61206;SDS011;47070;49.212;8.084;2022-11-21T12:17:06;1039.47;;;978.03;;
61206;SDS011;47070;49.212;8.084;2022-11-21T12:21:15;1031.53;;;970.07;;
61206;SDS011;47070;49.212;8.084;2022-11-21T12:25:20;1020.78;;;959.85;;
61206;SDS011;47070;49.212;8.084;2022-11-21T12:33:45;996.00;;;935.83;;
61206;SDS011;47070;49.212;8.084;2022-11-21T12:43:11;979.40;;;920.10;;
61206;SDS011;47070;49.212;8.084;2022-11-21T13:05:38;950.83;;;892.40;;
61206;SDS011;47070;49.212;8.084;2022-11-21T13:09:41;927.90;;;870.33;;
61206;SDS011;47070;49.212;8.084;2022-11-21T13:13:46;940.58;;;882.28;;
61206;SDS011;47070;49.212;8.084;2022-11-21T13:17:58;928.53;;;870.65;;
61206;SDS011;47070;49.212;8.084;2022-11-21T13:30:49;940.67;;;882.37;;
61206;SDS011;47070;49.212;8.084;2022-11-21T13:34:51;937.78;;;879.88;;
61206;SDS011;47070;49.212;8.084;2022-11-21T13:51:34;948.00;;;889.50;;
61206;SDS011;47070;49.212;8.084;2022-11-21T14:13:26;935.85;;;877.97;;
61206;SDS011;47070;49.212;8.084;2022-11-21T14:21:32;940.23;;;882.13;;
61206;SDS011;47070;49.212;8.084;2022-11-21T14:25:55;929.55;;;871.83;;
61206;SDS011;47070;49.212;8.084;2022-11-21T14:30:04;921.55;;;864.30;;
61206;SDS011;47070;49.212;8.084;2022-11-21T14:34:07;914.15;;;857.08;;
61206;SDS011;47070;49.212;8.084;2022-11-21T14:38:10;929.72;;;872.05;;
61206;SDS011;47070;49.212;8.084;2022-11-21T14:42:13;906.17;;;849.57;;
61206;SDS011;47070;49.212;8.084;2022-11-21T14:46:15;907.60;;;850.50;;
61206;SDS011;47070;49.212;8.084;2022-11-21T14:50:21;901.40;;;844.50;;
61206;SDS011;47070;49.212;8.084;2022-11-21T14:54:29;895.20;;;838.88;;
61206;SDS011;47070;49.212;8.084;2022-11-21T14:58:39;891.63;;;835.28;;
61206;SDS011;47070;49.212;8.084;2022-11-21T15:02:40;871.28;;;815.40;;
61206;SDS011;47070;49.212;8.084;2022-11-21T15:06:42;868.53;;;812.72;;
61206;SDS011;47070;49.212;8.084;2022-11-21T15:10:43;854.20;;;799.08;;
61206;SDS011;47070;49.212;8.084;2022-11-21T15:14:46;848.13;;;792.53;;
61206;SDS011;47070;49.212;8.084;2022-11-21T15:18:59;852.00;;;795.72;;
61206;SDS011;47070;49.212;8.084;2022-11-21T15:23:00;849.10;;;793.47;;
61206;SDS011;47070;49.212;8.084;2022-11-21T15:27:00;849.55;;;793.80;;
61206;SDS011;47070;49.212;8.084;2022-11-21T15:31:27;840.70;;;785.75;;
61206;SDS011;47070;49.212;8.084;2022-11-21T15:39:41;819.83;;;765.43;;
61206;SDS011;47070;49.212;8.084;2022-11-21T15:43:47;822.60;;;768.10;;
61206;SDS011;47070;49.212;8.084;2022-11-21T15:47:48;826.53;;;772.22;;
61206;SDS011;47070;49.212;8.084;2022-11-21T15:51:48;808.93;;;754.97;;
61206;SDS011;47070;49.212;8.084;2022-11-21T15:55:49;800.03;;;746.10;;
61206;SDS011;47070;49.212;8.084;2022-11-21T15:59:50;786.47;;;733.13;;
61206;SDS011;47070;49.212;8.084;2022-11-21T16:03:55;781.33;;;728.28;;
61206;SDS011;47070;49.212;8.084;2022-11-21T16:07:57;773.38;;;720.28;;
61206;SDS011;47070;49.212;8.084;2022-11-21T16:11:58;769.53;;;716.67;;
61206;SDS011;47070;49.212;8.084;2022-11-21T16:15:59;764.42;;;711.58;;
61206;SDS011;47070;49.212;8.084;2022-11-21T16:20:00;755.90;;;703.30;;
61206;SDS011;47070;49.212;8.084;2022-11-21T16:24:00;744.83;;;692.40;;
61206;SDS011;47070;49.212;8.084;2022-11-21T16:28:01;744.15;;;691.70;;
61206;SDS011;47070;49.212;8.084;2022-11-21T16:32:02;738.67;;;686.35;;
61206;SDS011;47070;49.212;8.084;2022-11-21T16:36:02;749.77;;;697.07;;
61206;SDS011;47070;49.212;8.084;2022-11-21T16:40:03;743.53;;;691.13;;
61206;SDS011;47070;49.212;8.084;2022-11-21T16:44:04;726.35;;;674.45;;
61206;SDS011;47070;49.212;8.084;2022-11-21T16:48:11;727.53;;;675.53;;
61206;SDS011;47070;49.212;8.084;2022-11-21T16:52:12;747.00;;;694.37;;
61206;SDS011;47070;49.212;8.084;2022-11-21T16:56:13;751.28;;;698.75;;
61206;SDS011;47070;49.212;8.084;2022-11-21T17:00:14;722.07;;;670.20;;
61206;SDS011;47070;49.212;8.084;2022-11-21T17:04:15;730.80;;;678.55;;
61206;SDS011;47070;49.212;8.084;2022-11-21T17:08:16;741.22;;;688.08;;
61206;SDS011;47070;49.212;8.084;2022-11-21T17:12:17;745.65;;;693.20;;
61206;SDS011;47070;49.212;8.084;2022-11-21T17:16:18;747.73;;;695.37;;
61206;SDS011;47070;49.212;8.084;2022-11-21T17:20:20;755.17;;;702.33;;
61206;SDS011;47070;49.212;8.084;2022-11-21T17:24:20;743.27;;;690.57;;
61206;SDS011;47070;49.212;8.084;2022-11-21T17:28:21;746.17;;;693.57;;
61206;SDS011;47070;49.212;8.084;2022-11-21T17:32:21;721.58;;;669.42;;
61206;SDS011;47070;49.212;8.084;2022-11-21T17:36:22;731.17;;;679.13;;
61206;SDS011;47070;49.212;8.084;2022-11-21T17:40:25;728.28;;;676.10;;
61206;SDS011;47070;49.212;8.084;2022-11-21T17:44:25;724.40;;;671.53;;
61206;SDS011;47070;49.212;8.084;2022-11-21T17:48:26;729.17;;;676.33;;
61206;SDS011;47070;49.212;8.084;2022-11-21T17:52:27;737.63;;;684.87;;
61206;SDS011;47070;49.212;8.084;2022-11-21T17:56:28;729.03;;;676.93;;
61206;SDS011;47070;49.212;8.084;2022-11-21T18:00:30;734.30;;;681.80;;
61206;SDS011;47070;49.212;8.084;2022-11-21T18:04:31;745.25;;;692.65;;
61206;SDS011;47070;49.212;8.084;2022-11-21T18:08:34;743.35;;;690.85;;
61206;SDS011;47070;49.212;8.084;2022-11-21T18:12:36;744.38;;;691.92;;
61206;SDS011;47070;49.212;8.084;2022-11-21T18:16:37;751.20;;;698.50;;
61206;SDS011;47070;49.212;8.084;2022-11-21T18:20:38;748.78;;;696.20;;
61206;SDS011;47070;49.212;8.084;2022-11-21T18:24:39;769.33;;;716.33;;
61206;SDS011;47070;49.212;8.084;2022-11-21T18:28:39;760.83;;;708.17;;
61206;SDS011;47070;49.212;8.084;2022-11-21T18:32:40;760.33;;;707.37;;
61206;SDS011;47070;49.212;8.084;2022-11-21T18:36:41;763.27;;;710.63;;
61206;SDS011;47070;49.212;8.084;2022-11-21T18:40:41;763.40;;;710.60;;
61206;SDS011;47070;49.212;8.084;2022-11-21T18:44:42;768.08;;;715.25;;
61206;SDS011;47070;49.212;8.084;2022-11-21T18:48:43;764.77;;;711.90;;
61206;SDS011;47070;49.212;8.084;2022-11-21T18:52:43;764.87;;;711.97;;
61206;SDS011;47070;49.212;8.084;2022-11-21T18:56:44;768.20;;;714.90;;
61206;SDS011;47070;49.212;8.084;2022-11-21T19:00:44;765.53;;;712.77;;
61206;SDS011;47070;49.212;8.084;2022-11-21T19:04:45;762.85;;;710.03;;
61206;SDS011;47070;49.212;8.084;2022-11-21T19:08:46;783.70;;;730.33;;
61206;SDS011;47070;49.212;8.084;2022-11-21T19:12:49;782.33;;;728.65;;
61206;SDS011;47070;49.212;8.084;2022-11-21T19:16:50;770.97;;;717.90;;
61206;SDS011;47070;49.212;8.084;2022-11-21T19:20:50;780.87;;;727.73;;
61206;SDS011;47070;49.212;8.084;2022-11-21T19:24:51;783.77;;;730.43;;
61206;SDS011;47070;49.212;8.084;2022-11-21T19:28:51;783.40;;;730.07;;
61206;SDS011;47070;49.212;8.084;2022-11-21T19:32:52;795.28;;;741.47;;
61206;SDS011;47070;49.212;8.084;2022-11-21T19:36:53;788.33;;;734.80;;
61206;SDS011;47070;49.212;8.084;2022-11-21T19:40:58;795.95;;;742.15;;
61206;SDS011;47070;49.212;8.084;2022-11-21T19:45:15;789.63;;;735.88;;
61206;SDS011;47070;49.212;8.084;2022-11-21T19:49:15;793.03;;;738.43;;
61206;SDS011;47070;49.212;8.084;2022-11-21T19:53:20;798.08;;;744.05;;
61206;SDS011;47070;49.212;8.084;2022-11-21T19:57:21;784.90;;;731.45;;
61206;SDS011;47070;49.212;8.084;2022-11-21T20:01:22;795.27;;;741.57;;
61206;SDS011;47070;49.212;8.084;2022-11-21T20:05:24;783.95;;;730.65;;
61206;SDS011;47070;49.212;8.084;2022-11-21T20:09:25;792.03;;;738.40;;
61206;SDS011;47070;49.212;8.084;2022-11-21T20:13:26;788.78;;;735.15;;
61206;SDS011;47070;49.212;8.084;2022-11-21T20:17:26;794.57;;;740.70;;
61206;SDS011;47070;49.212;8.084;2022-11-21T20:21:27;789.10;;;735.40;;
61206;SDS011;47070;49.212;8.084;2022-11-21T20:25:28;802.47;;;748.30;;
61206;SDS011;47070;49.212;8.084;2022-11-21T20:29:29;793.45;;;739.65;;
61206;SDS011;47070;49.212;8.084;2022-11-21T20:33:32;798.33;;;744.47;;
61206;SDS011;47070;49.212;8.084;2022-11-21T20:37:34;798.00;;;744.20;;
61206;SDS011;47070;49.212;8.084;2022-11-21T20:41:35;797.97;;;744.00;;
61206;SDS011;47070;49.212;8.084;2022-11-21T20:45:36;800.90;;;746.97;;
61206;SDS011;47070;49.212;8.084;2022-11-21T20:49:36;794.03;;;740.27;;
61206;SDS011;47070;49.212;8.084;2022-11-21T20:53:37;793.00;;;739.13;;
61206;SDS011;47070;49.212;8.084;2022-11-21T20:57:38;779.83;;;726.40;;
61206;SDS011;47070;49.212;8.084;2022-11-21T21:01:38;786.00;;;732.35;;
61206;SDS011;47070;49.212;8.084;2022-11-21T21:05:39;794.53;;;740.55;;
61206;SDS011;47070;49.212;8.084;2022-11-21T21:09:39;793.27;;;739.10;;
61206;SDS011;47070;49.212;8.084;2022-11-21T21:13:40;795.77;;;741.03;;
61206;SDS011;47070;49.212;8.084;2022-11-21T21:17:42;788.28;;;734.08;;
61206;SDS011;47070;49.212;8.084;2022-11-21T21:21:43;790.60;;;736.80;;
61206;SDS011;47070;49.212;8.084;2022-11-21T21:25:44;793.50;;;739.47;;
61206;SDS011;47070;49.212;8.084;2022-11-21T21:29:44;794.00;;;740.17;;
61206;SDS011;47070;49.212;8.084;2022-11-21T21:33:45;797.33;;;743.33;;
61206;SDS011;47070;49.212;8.084;2022-11-21T21:37:46;765.67;;;712.53;;
61206;SDS011;47070;49.212;8.084;2022-11-21T21:41:47;794.27;;;740.33;;
61206;SDS011;47070;49.212;8.084;2022-11-21T21:45:48;786.07;;;732.30;;
61206;SDS011;47070;49.212;8.084;2022-11-21T21:49:48;781.15;;;727.85;;
61206;SDS011;47070;49.212;8.084;2022-11-21T21:53:49;787.78;;;733.88;;
61206;SDS011;47070;49.212;8.084;2022-11-21T21:57:51;788.03;;;734.33;;
61206;SDS011;47070;49.212;8.084;2022-11-21T22:01:51;790.23;;;736.63;;
61206;SDS011;47070;49.212;8.084;2022-11-21T22:05:52;786.67;;;733.20;;
61206;SDS011;47070;49.212;8.084;2022-11-21T22:09:52;796.20;;;742.27;;
61206;SDS011;47070;49.212;8.084;2022-11-21T22:18:04;781.85;;;728.22;;
61206;SDS011;47070;49.212;8.084;2022-11-21T22:22:04;782.25;;;728.72;;
61206;SDS011;47070;49.212;8.084;2022-11-21T22:26:05;770.87;;;717.57;;
61206;SDS011;47070;49.212;8.084;2022-11-21T22:30:05;776.13;;;722.40;;
61206;SDS011;47070;49.212;8.084;2022-11-21T22:34:10;777.35;;;724.05;;
61206;SDS011;47070;49.212;8.084;2022-11-21T22:38:12;791.25;;;737.55;;
61206;SDS011;47070;49.212;8.084;2022-11-21T22:42:14;788.63;;;735.08;;
61206;SDS011;47070;49.212;8.084;2022-11-21T22:46:14;777.87;;;724.50;;
61206;SDS011;47070;49.212;8.084;2022-11-21T22:50:15;788.67;;;735.27;;
61206;SDS011;47070;49.212;8.084;2022-11-21T22:54:15;772.27;;;719.33;;
61206;SDS011;47070;49.212;8.084;2022-11-21T22:58:16;785.47;;;732.13;;
61206;SDS011;47070;49.212;8.084;2022-11-21T23:02:16;769.50;;;716.80;;
61206;SDS011;47070;49.212;8.084;2022-11-21T23:06:18;782.07;;;729.07;;
61206;SDS011;47070;49.212;8.084;2022-11-21T23:10:20;776.97;;;723.97;;
61206;SDS011;47070;49.212;8.084;2022-11-21T23:14:21;782.57;;;729.37;;
61206;SDS011;47070;49.212;8.084;2022-11-21T23:18:21;785.60;;;732.40;;
61206;SDS011;47070;49.212;8.084;2022-11-21T23:22:22;776.20;;;723.27;;
61206;SDS011;47070;49.212;8.084;2022-11-21T23:26:22;798.33;;;744.80;;
61206;SDS011;47070;49.212;8.084;2022-11-21T23:30:23;790.72;;;737.53;;
61206;SDS011;47070;49.212;8.084;2022-11-21T23:34:24;807.53;;;753.67;;
61206;SDS011;47070;49.212;8.084;2022-11-21T23:38:24;808.30;;;754.57;;
61206;SDS011;47070;49.212;8.084;2022-11-21T23:42:25;801.10;;;747.57;;
61206;SDS011;47070;49.212;8.084;2022-11-21T23:46:26;802.93;;;749.23;;
61206;SDS011;47070;49.212;8.084;2022-11-21T23:50:28;809.05;;;755.17;;
61206;SDS011;47070;49.212;8.084;2022-11-21T23:54:28;815.33;;;761.58;;
61206;SDS011;47070;49.212;8.084;2022-11-21T23:58:29;816.97;;;762.90;;
